White Plains, Kentucky
Current Conditions -  °F | °C
As of 6:35 AM on Saturday 25 Oct 2014 (Local Time) from K2I0 Reporting Station
Overcast Overcast  
Wind Chill: 58°   Ceiling: 4100
Heat Index: 58°   Visibility: 10mi
Dew Point: 55°   Wind: 8mph
Humidity: 91%   Direction: 210°SSW
Pressure: 30.04"   Gusts: NA
Location:  37.18°N, 87.38°W
Report Text: K2I0 251135Z AUTO 21007KT 10SM OVC041 14/13 A3004 RMK AO2 T01440130
Loading
Personal Weather Stations






























Interactive Weather Map New forecast layout! Learn more

10-Day Weather Forecast

Advertisements
Track Severe Weather on mobile